sensor_id;sensor_type;location;lat;lon;timestamp;P1;durP1;ratioP1;P2;durP2;ratioP2
9420;SDS011;4749;51.398;5.466;2022-12-07T00:01:40;10.10;;;7.40;;
9420;SDS011;4749;51.398;5.466;2022-12-07T00:04:11;9.17;;;7.27;;
9420;SDS011;4749;51.398;5.466;2022-12-07T00:06:42;9.13;;;7.23;;
9420;SDS011;4749;51.398;5.466;2022-12-07T00:09:13;11.93;;;7.33;;
9420;SDS011;4749;51.398;5.466;2022-12-07T00:11:43;9.53;;;6.80;;
9420;SDS011;4749;51.398;5.466;2022-12-07T00:14:14;7.40;;;6.60;;
9420;SDS011;4749;51.398;5.466;2022-12-07T00:16:43;12.87;;;7.57;;
9420;SDS011;4749;51.398;5.466;2022-12-07T00:19:12;9.07;;;6.87;;
9420;SDS011;4749;51.398;5.466;2022-12-07T00:21:40;11.30;;;6.70;;
9420;SDS011;4749;51.398;5.466;2022-12-07T00:24:09;12.07;;;7.47;;
9420;SDS011;4749;51.398;5.466;2022-12-07T00:26:37;13.03;;;6.93;;
9420;SDS011;4749;51.398;5.466;2022-12-07T00:29:08;10.67;;;6.73;;
9420;SDS011;4749;51.398;5.466;2022-12-07T00:31:44;9.03;;;6.83;;
9420;SDS011;4749;51.398;5.466;2022-12-07T00:34:13;9.93;;;7.40;;
9420;SDS011;4749;51.398;5.466;2022-12-07T00:36:47;11.63;;;6.73;;
9420;SDS011;4749;51.398;5.466;2022-12-07T00:39:16;10.03;;;7.33;;
9420;SDS011;4749;51.398;5.466;2022-12-07T00:41:43;9.97;;;6.83;;
9420;SDS011;4749;51.398;5.466;2022-12-07T00:44:10;10.80;;;6.80;;
9420;SDS011;4749;51.398;5.466;2022-12-07T00:46:38;10.50;;;6.90;;
9420;SDS011;4749;51.398;5.466;2022-12-07T00:49:05;10.63;;;6.83;;
9420;SDS011;4749;51.398;5.466;2022-12-07T00:51:32;10.30;;;6.83;;
9420;SDS011;4749;51.398;5.466;2022-12-07T00:53:59;10.23;;;7.10;;
9420;SDS011;4749;51.398;5.466;2022-12-07T00:56:27;13.30;;;7.10;;
9420;SDS011;4749;51.398;5.466;2022-12-07T00:58:57;9.53;;;6.70;;
9420;SDS011;4749;51.398;5.466;2022-12-07T01:01:30;11.03;;;6.77;;
9420;SDS011;4749;51.398;5.466;2022-12-07T01:04:00;12.07;;;6.93;;
9420;SDS011;4749;51.398;5.466;2022-12-07T01:06:28;10.40;;;6.57;;
9420;SDS011;4749;51.398;5.466;2022-12-07T01:08:56;10.57;;;6.90;;
9420;SDS011;4749;51.398;5.466;2022-12-07T01:11:24;13.53;;;6.67;;
9420;SDS011;4749;51.398;5.466;2022-12-07T01:13:55;9.37;;;6.43;;
9420;SDS011;4749;51.398;5.466;2022-12-07T01:16:26;8.23;;;6.80;;
9420;SDS011;4749;51.398;5.466;2022-12-07T01:18:55;8.63;;;6.67;;
9420;SDS011;4749;51.398;5.466;2022-12-07T01:21:28;7.80;;;6.27;;
9420;SDS011;4749;51.398;5.466;2022-12-07T01:24:02;10.47;;;6.53;;
9420;SDS011;4749;51.398;5.466;2022-12-07T01:26:32;9.27;;;6.13;;
9420;SDS011;4749;51.398;5.466;2022-12-07T01:28:59;11.30;;;6.70;;
9420;SDS011;4749;51.398;5.466;2022-12-07T01:31:27;8.03;;;6.17;;
9420;SDS011;4749;51.398;5.466;2022-12-07T01:33:57;7.90;;;6.30;;
9420;SDS011;4749;51.398;5.466;2022-12-07T01:36:27;10.47;;;6.70;;
9420;SDS011;4749;51.398;5.466;2022-12-07T01:39:03;9.67;;;6.27;;
9420;SDS011;4749;51.398;5.466;2022-12-07T01:41:35;7.77;;;6.37;;
9420;SDS011;4749;51.398;5.466;2022-12-07T01:44:17;10.20;;;6.77;;
9420;SDS011;4749;51.398;5.466;2022-12-07T01:46:57;10.73;;;6.67;;
9420;SDS011;4749;51.398;5.466;2022-12-07T01:54:46;9.13;;;6.53;;
9420;SDS011;4749;51.398;5.466;2022-12-07T01:57:17;8.27;;;6.83;;
9420;SDS011;4749;51.398;5.466;2022-12-07T01:59:45;14.83;;;7.60;;
9420;SDS011;4749;51.398;5.466;2022-12-07T02:02:30;9.97;;;7.00;;
9420;SDS011;4749;51.398;5.466;2022-12-07T02:05:04;13.40;;;7.83;;
9420;SDS011;4749;51.398;5.466;2022-12-07T02:07:33;10.27;;;7.90;;
9420;SDS011;4749;51.398;5.466;2022-12-07T02:10:17;11.10;;;6.83;;
9420;SDS011;4749;51.398;5.466;2022-12-07T02:12:55;10.07;;;7.13;;
9420;SDS011;4749;51.398;5.466;2022-12-07T02:15:59;8.90;;;7.03;;
9420;SDS011;4749;51.398;5.466;2022-12-07T02:31:02;11.37;;;7.13;;
9420;SDS011;4749;51.398;5.466;2022-12-07T02:33:40;11.87;;;7.00;;
9420;SDS011;4749;51.398;5.466;2022-12-07T02:36:39;9.27;;;6.17;;
9420;SDS011;4749;51.398;5.466;2022-12-07T02:39:15;10.87;;;6.83;;
9420;SDS011;4749;51.398;5.466;2022-12-07T02:42:16;8.23;;;6.00;;
9420;SDS011;4749;51.398;5.466;2022-12-07T02:44:50;9.97;;;6.37;;
9420;SDS011;4749;51.398;5.466;2022-12-07T02:47:18;7.97;;;5.87;;
9420;SDS011;4749;51.398;5.466;2022-12-07T02:49:48;11.63;;;6.20;;
9420;SDS011;4749;51.398;5.466;2022-12-07T02:52:16;9.70;;;5.30;;
9420;SDS011;4749;51.398;5.466;2022-12-07T02:54:44;12.77;;;5.73;;
9420;SDS011;4749;51.398;5.466;2022-12-07T02:57:18;9.73;;;5.50;;
9420;SDS011;4749;51.398;5.466;2022-12-07T03:00:06;9.67;;;5.03;;
9420;SDS011;4749;51.398;5.466;2022-12-07T03:02:38;8.07;;;5.23;;
9420;SDS011;4749;51.398;5.466;2022-12-07T03:05:59;11.03;;;5.73;;
9420;SDS011;4749;51.398;5.466;2022-12-07T03:16:57;8.93;;;5.00;;
9420;SDS011;4749;51.398;5.466;2022-12-07T03:19:48;7.47;;;5.30;;
9420;SDS011;4749;51.398;5.466;2022-12-07T03:22:20;7.80;;;5.23;;
9420;SDS011;4749;51.398;5.466;2022-12-07T03:24:51;7.47;;;5.50;;
9420;SDS011;4749;51.398;5.466;2022-12-07T03:27:31;7.40;;;4.80;;
9420;SDS011;4749;51.398;5.466;2022-12-07T03:30:37;8.93;;;5.10;;
9420;SDS011;4749;51.398;5.466;2022-12-07T03:42:05;7.03;;;4.63;;
9420;SDS011;4749;51.398;5.466;2022-12-07T03:44:34;9.67;;;4.27;;
9420;SDS011;4749;51.398;5.466;2022-12-07T03:47:05;7.07;;;5.10;;
9420;SDS011;4749;51.398;5.466;2022-12-07T03:50:00;8.77;;;4.57;;
9420;SDS011;4749;51.398;5.466;2022-12-07T03:52:55;5.27;;;4.63;;
9420;SDS011;4749;51.398;5.466;2022-12-07T03:55:29;7.17;;;4.83;;
9420;SDS011;4749;51.398;5.466;2022-12-07T03:58:05;8.43;;;4.60;;
9420;SDS011;4749;51.398;5.466;2022-12-07T04:00:37;6.03;;;4.90;;
9420;SDS011;4749;51.398;5.466;2022-12-07T04:03:04;6.90;;;5.10;;
9420;SDS011;4749;51.398;5.466;2022-12-07T04:05:32;10.17;;;5.20;;
9420;SDS011;4749;51.398;5.466;2022-12-07T04:07:59;7.00;;;4.97;;
9420;SDS011;4749;51.398;5.466;2022-12-07T04:10:26;8.13;;;4.77;;
9420;SDS011;4749;51.398;5.466;2022-12-07T04:12:54;10.67;;;4.70;;
9420;SDS011;4749;51.398;5.466;2022-12-07T04:15:22;6.47;;;4.53;;
9420;SDS011;4749;51.398;5.466;2022-12-07T04:17:49;7.40;;;4.63;;
9420;SDS011;4749;51.398;5.466;2022-12-07T04:20:17;7.40;;;5.20;;
9420;SDS011;4749;51.398;5.466;2022-12-07T04:22:44;10.43;;;4.90;;
9420;SDS011;4749;51.398;5.466;2022-12-07T04:25:11;8.23;;;5.20;;
9420;SDS011;4749;51.398;5.466;2022-12-07T04:27:39;8.47;;;4.67;;
9420;SDS011;4749;51.398;5.466;2022-12-07T04:30:06;6.47;;;4.17;;
9420;SDS011;4749;51.398;5.466;2022-12-07T04:32:34;6.90;;;4.17;;
9420;SDS011;4749;51.398;5.466;2022-12-07T04:35:01;10.97;;;5.23;;
9420;SDS011;4749;51.398;5.466;2022-12-07T04:37:29;8.67;;;4.37;;
9420;SDS011;4749;51.398;5.466;2022-12-07T04:39:56;8.23;;;4.63;;
9420;SDS011;4749;51.398;5.466;2022-12-07T04:42:23;12.17;;;5.07;;
9420;SDS011;4749;51.398;5.466;2022-12-07T04:44:50;6.93;;;4.53;;
9420;SDS011;4749;51.398;5.466;2022-12-07T04:47:18;7.00;;;4.40;;
9420;SDS011;4749;51.398;5.466;2022-12-07T04:49:45;7.70;;;3.93;;
9420;SDS011;4749;51.398;5.466;2022-12-07T04:52:12;8.00;;;4.07;;
9420;SDS011;4749;51.398;5.466;2022-12-07T04:54:39;10.20;;;4.53;;
9420;SDS011;4749;51.398;5.466;2022-12-07T04:57:07;11.03;;;4.17;;
9420;SDS011;4749;51.398;5.466;2022-12-07T04:59:34;9.17;;;4.63;;
9420;SDS011;4749;51.398;5.466;2022-12-07T05:02:06;6.70;;;4.10;;
9420;SDS011;4749;51.398;5.466;2022-12-07T05:04:33;9.47;;;4.33;;
9420;SDS011;4749;51.398;5.466;2022-12-07T05:07:00;8.87;;;4.13;;
9420;SDS011;4749;51.398;5.466;2022-12-07T05:09:28;5.67;;;4.00;;
9420;SDS011;4749;51.398;5.466;2022-12-07T05:11:55;8.63;;;4.00;;
9420;SDS011;4749;51.398;5.466;2022-12-07T05:14:22;8.43;;;4.17;;
9420;SDS011;4749;51.398;5.466;2022-12-07T05:16:50;7.90;;;3.73;;
9420;SDS011;4749;51.398;5.466;2022-12-07T05:19:18;6.77;;;3.63;;
9420;SDS011;4749;51.398;5.466;2022-12-07T05:21:46;5.10;;;3.90;;
9420;SDS011;4749;51.398;5.466;2022-12-07T05:24:13;6.80;;;3.37;;
9420;SDS011;4749;51.398;5.466;2022-12-07T05:26:42;8.60;;;5.13;;
9420;SDS011;4749;51.398;5.466;2022-12-07T05:29:11;8.53;;;3.87;;
9420;SDS011;4749;51.398;5.466;2022-12-07T05:31:41;10.00;;;3.83;;
9420;SDS011;4749;51.398;5.466;2022-12-07T05:34:09;7.37;;;3.50;;
9420;SDS011;4749;51.398;5.466;2022-12-07T05:36:36;12.27;;;4.10;;
9420;SDS011;4749;51.398;5.466;2022-12-07T05:39:04;10.53;;;3.63;;
9420;SDS011;4749;51.398;5.466;2022-12-07T05:41:31;5.07;;;3.07;;
9420;SDS011;4749;51.398;5.466;2022-12-07T05:44:17;5.20;;;2.90;;
9420;SDS011;4749;51.398;5.466;2022-12-07T05:46:44;6.63;;;3.00;;
9420;SDS011;4749;51.398;5.466;2022-12-07T05:49:11;7.27;;;3.10;;
9420;SDS011;4749;51.398;5.466;2022-12-07T05:51:38;7.47;;;3.10;;
9420;SDS011;4749;51.398;5.466;2022-12-07T05:54:05;4.70;;;3.00;;
9420;SDS011;4749;51.398;5.466;2022-12-07T05:56:32;8.40;;;2.90;;
9420;SDS011;4749;51.398;5.466;2022-12-07T05:59:00;5.33;;;2.97;;
9420;SDS011;4749;51.398;5.466;2022-12-07T06:01:45;10.37;;;3.33;;
9420;SDS011;4749;51.398;5.466;2022-12-07T06:04:12;6.47;;;2.77;;
9420;SDS011;4749;51.398;5.466;2022-12-07T06:06:39;7.03;;;2.63;;
9420;SDS011;4749;51.398;5.466;2022-12-07T06:09:07;7.83;;;2.70;;
9420;SDS011;4749;51.398;5.466;2022-12-07T06:11:34;10.60;;;2.97;;
9420;SDS011;4749;51.398;5.466;2022-12-07T06:14:20;10.30;;;2.93;;
9420;SDS011;4749;51.398;5.466;2022-12-07T06:16:47;6.20;;;2.90;;
9420;SDS011;4749;51.398;5.466;2022-12-07T06:19:15;6.00;;;2.53;;
9420;SDS011;4749;51.398;5.466;2022-12-07T06:21:42;6.03;;;2.80;;
9420;SDS011;4749;51.398;5.466;2022-12-07T06:24:11;4.80;;;2.47;;
9420;SDS011;4749;51.398;5.466;2022-12-07T06:26:39;7.47;;;2.77;;
9420;SDS011;4749;51.398;5.466;2022-12-07T06:29:07;5.57;;;2.70;;
9420;SDS011;4749;51.398;5.466;2022-12-07T06:31:35;6.50;;;2.67;;
9420;SDS011;4749;51.398;5.466;2022-12-07T06:34:06;4.17;;;2.70;;
9420;SDS011;4749;51.398;5.466;2022-12-07T06:36:38;6.03;;;3.10;;
9420;SDS011;4749;51.398;5.466;2022-12-07T06:39:06;4.70;;;3.30;;
9420;SDS011;4749;51.398;5.466;2022-12-07T06:41:36;6.00;;;2.60;;
9420;SDS011;4749;51.398;5.466;2022-12-07T06:44:05;7.27;;;2.93;;
9420;SDS011;4749;51.398;5.466;2022-12-07T06:46:33;7.00;;;3.77;;
9420;SDS011;4749;51.398;5.466;2022-12-07T06:49:04;7.43;;;3.57;;
9420;SDS011;4749;51.398;5.466;2022-12-07T06:51:32;7.13;;;3.47;;
9420;SDS011;4749;51.398;5.466;2022-12-07T06:54:03;6.77;;;3.83;;
9420;SDS011;4749;51.398;5.466;2022-12-07T06:56:32;8.37;;;3.97;;
9420;SDS011;4749;51.398;5.466;2022-12-07T06:58:59;6.33;;;4.13;;
9420;SDS011;4749;51.398;5.466;2022-12-07T07:01:27;8.97;;;4.40;;
9420;SDS011;4749;51.398;5.466;2022-12-07T07:03:55;8.13;;;5.17;;
9420;SDS011;4749;51.398;5.466;2022-12-07T07:06:22;8.90;;;5.03;;
9420;SDS011;4749;51.398;5.466;2022-12-07T07:08:50;9.87;;;5.23;;
9420;SDS011;4749;51.398;5.466;2022-12-07T07:11:17;8.53;;;5.80;;
9420;SDS011;4749;51.398;5.466;2022-12-07T07:13:45;9.67;;;6.37;;
9420;SDS011;4749;51.398;5.466;2022-12-07T07:16:12;9.87;;;6.03;;
9420;SDS011;4749;51.398;5.466;2022-12-07T07:18:39;9.57;;;6.20;;
9420;SDS011;4749;51.398;5.466;2022-12-07T07:21:07;9.83;;;7.17;;
9420;SDS011;4749;51.398;5.466;2022-12-07T07:23:34;12.77;;;7.23;;
9420;SDS011;4749;51.398;5.466;2022-12-07T07:26:02;11.97;;;7.10;;
9420;SDS011;4749;51.398;5.466;2022-12-07T07:28:30;12.27;;;7.23;;
9420;SDS011;4749;51.398;5.466;2022-12-07T07:30:57;12.43;;;7.20;;
9420;SDS011;4749;51.398;5.466;2022-12-07T07:33:24;10.07;;;7.07;;
9420;SDS011;4749;51.398;5.466;2022-12-07T07:35:52;12.43;;;8.40;;
9420;SDS011;4749;51.398;5.466;2022-12-07T07:38:19;10.63;;;7.50;;
9420;SDS011;4749;51.398;5.466;2022-12-07T07:40:46;14.23;;;7.57;;
9420;SDS011;4749;51.398;5.466;2022-12-07T07:43:13;10.27;;;7.63;;
9420;SDS011;4749;51.398;5.466;2022-12-07T07:45:41;12.90;;;8.40;;
9420;SDS011;4749;51.398;5.466;2022-12-07T07:48:08;17.13;;;7.70;;
9420;SDS011;4749;51.398;5.466;2022-12-07T07:50:35;13.73;;;6.70;;
9420;SDS011;4749;51.398;5.466;2022-12-07T07:53:02;10.57;;;7.50;;
9420;SDS011;4749;51.398;5.466;2022-12-07T07:55:29;12.47;;;7.83;;
9420;SDS011;4749;51.398;5.466;2022-12-07T07:57:57;13.73;;;8.60;;
9420;SDS011;4749;51.398;5.466;2022-12-07T08:00:24;14.00;;;8.10;;
9420;SDS011;4749;51.398;5.466;2022-12-07T08:02:52;14.07;;;8.00;;
9420;SDS011;4749;51.398;5.466;2022-12-07T08:05:19;13.87;;;8.53;;
9420;SDS011;4749;51.398;5.466;2022-12-07T08:07:46;15.53;;;8.77;;
9420;SDS011;4749;51.398;5.466;2022-12-07T08:10:13;13.20;;;8.07;;
9420;SDS011;4749;51.398;5.466;2022-12-07T08:12:41;14.33;;;8.37;;
9420;SDS011;4749;51.398;5.466;2022-12-07T08:15:29;12.07;;;7.87;;
9420;SDS011;4749;51.398;5.466;2022-12-07T08:17:57;11.70;;;7.13;;
9420;SDS011;4749;51.398;5.466;2022-12-07T08:20:25;12.73;;;7.77;;
9420;SDS011;4749;51.398;5.466;2022-12-07T08:22:52;14.23;;;7.40;;
9420;SDS011;4749;51.398;5.466;2022-12-07T08:25:20;10.83;;;6.90;;
9420;SDS011;4749;51.398;5.466;2022-12-07T08:27:51;11.30;;;6.73;;
9420;SDS011;4749;51.398;5.466;2022-12-07T08:30:18;13.80;;;7.43;;
9420;SDS011;4749;51.398;5.466;2022-12-07T08:32:46;13.60;;;7.20;;
9420;SDS011;4749;51.398;5.466;2022-12-07T08:35:14;11.17;;;7.73;;
9420;SDS011;4749;51.398;5.466;2022-12-07T08:37:42;9.83;;;7.60;;
9420;SDS011;4749;51.398;5.466;2022-12-07T08:40:10;12.80;;;6.97;;
9420;SDS011;4749;51.398;5.466;2022-12-07T08:42:42;11.07;;;6.90;;
9420;SDS011;4749;51.398;5.466;2022-12-07T08:45:11;9.63;;;6.60;;
9420;SDS011;4749;51.398;5.466;2022-12-07T08:50:27;12.97;;;7.57;;
9420;SDS011;4749;51.398;5.466;2022-12-07T08:52:55;10.37;;;6.53;;
9420;SDS011;4749;51.398;5.466;2022-12-07T08:55:25;10.83;;;6.23;;
9420;SDS011;4749;51.398;5.466;2022-12-07T08:57:53;11.17;;;6.43;;
9420;SDS011;4749;51.398;5.466;2022-12-07T09:00:21;12.20;;;6.60;;
9420;SDS011;4749;51.398;5.466;2022-12-07T09:02:49;8.93;;;5.67;;
9420;SDS011;4749;51.398;5.466;2022-12-07T09:05:16;8.13;;;5.13;;
9420;SDS011;4749;51.398;5.466;2022-12-07T09:07:43;10.90;;;6.13;;
9420;SDS011;4749;51.398;5.466;2022-12-07T09:10:14;10.90;;;5.67;;
9420;SDS011;4749;51.398;5.466;2022-12-07T09:12:41;9.03;;;5.60;;
9420;SDS011;4749;51.398;5.466;2022-12-07T09:15:08;9.27;;;5.50;;
9420;SDS011;4749;51.398;5.466;2022-12-07T09:17:35;9.60;;;4.87;;
9420;SDS011;4749;51.398;5.466;2022-12-07T09:20:05;9.83;;;5.37;;
9420;SDS011;4749;51.398;5.466;2022-12-07T09:22:33;7.33;;;5.03;;
9420;SDS011;4749;51.398;5.466;2022-12-07T09:25:00;10.40;;;4.83;;
9420;SDS011;4749;51.398;5.466;2022-12-07T09:27:30;6.47;;;4.87;;
9420;SDS011;4749;51.398;5.466;2022-12-07T09:29:58;9.43;;;5.33;;
9420;SDS011;4749;51.398;5.466;2022-12-07T09:32:25;6.50;;;4.73;;
9420;SDS011;4749;51.398;5.466;2022-12-07T09:34:52;8.47;;;4.90;;
9420;SDS011;4749;51.398;5.466;2022-12-07T09:37:20;10.13;;;5.37;;
9420;SDS011;4749;51.398;5.466;2022-12-07T09:39:47;9.40;;;5.00;;
9420;SDS011;4749;51.398;5.466;2022-12-07T09:42:47;9.03;;;4.57;;
9420;SDS011;4749;51.398;5.466;2022-12-07T09:45:22;7.93;;;4.20;;
9420;SDS011;4749;51.398;5.466;2022-12-07T09:47:57;6.83;;;3.73;;
9420;SDS011;4749;51.398;5.466;2022-12-07T09:50:27;7.93;;;4.20;;
9420;SDS011;4749;51.398;5.466;2022-12-07T09:52:55;7.13;;;4.20;;
9420;SDS011;4749;51.398;5.466;2022-12-07T09:55:56;12.20;;;4.67;;
9420;SDS011;4749;51.398;5.466;2022-12-07T09:58:24;7.23;;;4.40;;
9420;SDS011;4749;51.398;5.466;2022-12-07T10:01:29;10.80;;;4.50;;
9420;SDS011;4749;51.398;5.466;2022-12-07T10:06:27;9.70;;;4.53;;
9420;SDS011;4749;51.398;5.466;2022-12-07T10:08:54;5.00;;;3.50;;
9420;SDS011;4749;51.398;5.466;2022-12-07T10:11:21;8.23;;;4.03;;
9420;SDS011;4749;51.398;5.466;2022-12-07T10:13:51;7.10;;;3.90;;
9420;SDS011;4749;51.398;5.466;2022-12-07T10:24:27;7.77;;;3.73;;
9420;SDS011;4749;51.398;5.466;2022-12-07T10:26:55;8.37;;;4.37;;
9420;SDS011;4749;51.398;5.466;2022-12-07T10:29:36;8.70;;;3.67;;
9420;SDS011;4749;51.398;5.466;2022-12-07T10:34:41;7.97;;;4.67;;
9420;SDS011;4749;51.398;5.466;2022-12-07T10:37:18;7.40;;;3.63;;
9420;SDS011;4749;51.398;5.466;2022-12-07T10:39:56;8.03;;;4.43;;
9420;SDS011;4749;51.398;5.466;2022-12-07T10:42:30;6.43;;;3.77;;
9420;SDS011;4749;51.398;5.466;2022-12-07T10:45:14;6.13;;;3.70;;
9420;SDS011;4749;51.398;5.466;2022-12-07T10:50:45;9.10;;;4.13;;
9420;SDS011;4749;51.398;5.466;2022-12-07T10:56:01;6.53;;;3.60;;
9420;SDS011;4749;51.398;5.466;2022-12-07T11:01:43;6.33;;;3.07;;
9420;SDS011;4749;51.398;5.466;2022-12-07T11:07:19;7.60;;;3.50;;
9420;SDS011;4749;51.398;5.466;2022-12-07T11:16:02;14.47;;;4.87;;
9420;SDS011;4749;51.398;5.466;2022-12-07T11:22:30;6.00;;;3.20;;
9420;SDS011;4749;51.398;5.466;2022-12-07T11:25:35;7.57;;;3.63;;
9420;SDS011;4749;51.398;5.466;2022-12-07T11:37:21;9.67;;;3.23;;
9420;SDS011;4749;51.398;5.466;2022-12-07T11:42:41;6.50;;;2.70;;
9420;SDS011;4749;51.398;5.466;2022-12-07T11:45:24;6.20;;;2.93;;
9420;SDS011;4749;51.398;5.466;2022-12-07T11:50:42;7.37;;;2.27;;
9420;SDS011;4749;51.398;5.466;2022-12-07T11:53:38;6.43;;;3.07;;
9420;SDS011;4749;51.398;5.466;2022-12-07T11:56:23;6.57;;;2.40;;
9420;SDS011;4749;51.398;5.466;2022-12-07T11:58:55;5.40;;;2.47;;
9420;SDS011;4749;51.398;5.466;2022-12-07T12:02:02;7.67;;;2.27;;
9420;SDS011;4749;51.398;5.466;2022-12-07T12:05:02;6.47;;;2.40;;
9420;SDS011;4749;51.398;5.466;2022-12-07T12:07:50;7.97;;;2.43;;
9420;SDS011;4749;51.398;5.466;2022-12-07T12:22:48;7.23;;;2.00;;
9420;SDS011;4749;51.398;5.466;2022-12-07T12:28:18;9.50;;;4.77;;
9420;SDS011;4749;51.398;5.466;2022-12-07T12:30:47;13.53;;;5.10;;
9420;SDS011;4749;51.398;5.466;2022-12-07T12:33:42;5.10;;;2.50;;
9420;SDS011;4749;51.398;5.466;2022-12-07T12:51:43;7.57;;;3.40;;
9420;SDS011;4749;51.398;5.466;2022-12-07T12:54:23;8.47;;;3.90;;
9420;SDS011;4749;51.398;5.466;2022-12-07T12:57:08;6.13;;;2.00;;
9420;SDS011;4749;51.398;5.466;2022-12-07T13:16:37;4.20;;;1.40;;
9420;SDS011;4749;51.398;5.466;2022-12-07T13:18:36;5.93;;;1.50;;
9420;SDS011;4749;51.398;5.466;2022-12-07T13:26:20;5.53;;;1.50;;
9420;SDS011;4749;51.398;5.466;2022-12-07T13:31:53;8.27;;;1.93;;
9420;SDS011;4749;51.398;5.466;2022-12-07T13:34:41;6.80;;;2.00;;
9420;SDS011;4749;51.398;5.466;2022-12-07T13:37:25;3.40;;;1.60;;
9420;SDS011;4749;51.398;5.466;2022-12-07T13:40:20;3.30;;;1.90;;
9420;SDS011;4749;51.398;5.466;2022-12-07T13:42:56;4.10;;;1.47;;
9420;SDS011;4749;51.398;5.466;2022-12-07T13:48:16;3.40;;;1.20;;
9420;SDS011;4749;51.398;5.466;2022-12-07T13:51:00;4.90;;;1.40;;
9420;SDS011;4749;51.398;5.466;2022-12-07T13:53:32;7.43;;;1.63;;
9420;SDS011;4749;51.398;5.466;2022-12-07T13:55:59;5.00;;;1.50;;
9420;SDS011;4749;51.398;5.466;2022-12-07T13:58:30;5.63;;;1.33;;
9420;SDS011;4749;51.398;5.466;2022-12-07T14:00:59;2.83;;;1.20;;
9420;SDS011;4749;51.398;5.466;2022-12-07T14:03:30;5.77;;;1.60;;
9420;SDS011;4749;51.398;5.466;2022-12-07T14:06:03;3.73;;;1.40;;
9420;SDS011;4749;51.398;5.466;2022-12-07T14:08:42;4.37;;;1.90;;
9420;SDS011;4749;51.398;5.466;2022-12-07T14:11:13;7.10;;;1.87;;
9420;SDS011;4749;51.398;5.466;2022-12-07T14:18:57;7.37;;;1.77;;
9420;SDS011;4749;51.398;5.466;2022-12-07T14:21:28;2.47;;;1.60;;
9420;SDS011;4749;51.398;5.466;2022-12-07T14:24:10;3.73;;;1.43;;
9420;SDS011;4749;51.398;5.466;2022-12-07T14:26:47;2.73;;;1.50;;
9420;SDS011;4749;51.398;5.466;2022-12-07T14:29:19;4.23;;;1.73;;
9420;SDS011;4749;51.398;5.466;2022-12-07T14:31:53;3.10;;;1.30;;
9420;SDS011;4749;51.398;5.466;2022-12-07T14:34:23;2.40;;;1.60;;
9420;SDS011;4749;51.398;5.466;2022-12-07T14:36:51;5.43;;;1.80;;
9420;SDS011;4749;51.398;5.466;2022-12-07T14:39:18;3.30;;;1.27;;
9420;SDS011;4749;51.398;5.466;2022-12-07T14:41:46;6.73;;;1.93;;
9420;SDS011;4749;51.398;5.466;2022-12-07T14:44:20;3.67;;;1.50;;
9420;SDS011;4749;51.398;5.466;2022-12-07T14:46:55;6.40;;;1.97;;
9420;SDS011;4749;51.398;5.466;2022-12-07T14:49:42;3.67;;;1.80;;
9420;SDS011;4749;51.398;5.466;2022-12-07T14:52:28;5.30;;;1.73;;
9420;SDS011;4749;51.398;5.466;2022-12-07T14:55:23;6.37;;;2.40;;
9420;SDS011;4749;51.398;5.466;2022-12-07T14:57:53;10.87;;;3.57;;
9420;SDS011;4749;51.398;5.466;2022-12-07T15:00:22;5.43;;;2.13;;
9420;SDS011;4749;51.398;5.466;2022-12-07T15:02:52;9.27;;;3.00;;
9420;SDS011;4749;51.398;5.466;2022-12-07T15:05:20;11.10;;;2.90;;
9420;SDS011;4749;51.398;5.466;2022-12-07T15:07:50;4.70;;;1.83;;
9420;SDS011;4749;51.398;5.466;2022-12-07T15:10:20;7.67;;;2.77;;
9420;SDS011;4749;51.398;5.466;2022-12-07T15:12:59;5.20;;;2.00;;
9420;SDS011;4749;51.398;5.466;2022-12-07T15:15:48;7.80;;;2.47;;
9420;SDS011;4749;51.398;5.466;2022-12-07T15:18:18;7.33;;;1.93;;
9420;SDS011;4749;51.398;5.466;2022-12-07T15:20:47;5.23;;;2.17;;
9420;SDS011;4749;51.398;5.466;2022-12-07T15:23:15;22.10;;;10.53;;
9420;SDS011;4749;51.398;5.466;2022-12-07T15:25:44;17.37;;;7.20;;
9420;SDS011;4749;51.398;5.466;2022-12-07T15:28:13;10.37;;;3.87;;
9420;SDS011;4749;51.398;5.466;2022-12-07T15:30:42;9.63;;;3.23;;
9420;SDS011;4749;51.398;5.466;2022-12-07T15:33:11;13.03;;;6.23;;
9420;SDS011;4749;51.398;5.466;2022-12-07T15:35:40;7.73;;;2.40;;
9420;SDS011;4749;51.398;5.466;2022-12-07T15:38:09;4.47;;;2.30;;
9420;SDS011;4749;51.398;5.466;2022-12-07T15:40:37;6.80;;;2.10;;
9420;SDS011;4749;51.398;5.466;2022-12-07T15:43:05;3.50;;;1.77;;
9420;SDS011;4749;51.398;5.466;2022-12-07T15:45:54;5.27;;;2.00;;
9420;SDS011;4749;51.398;5.466;2022-12-07T15:48:21;4.10;;;2.33;;
9420;SDS011;4749;51.398;5.466;2022-12-07T15:51:00;4.97;;;2.33;;
9420;SDS011;4749;51.398;5.466;2022-12-07T15:53:33;6.03;;;2.17;;
9420;SDS011;4749;51.398;5.466;2022-12-07T15:56:00;4.37;;;1.93;;
9420;SDS011;4749;51.398;5.466;2022-12-07T15:58:32;6.40;;;2.10;;
9420;SDS011;4749;51.398;5.466;2022-12-07T16:00:59;7.90;;;2.10;;
9420;SDS011;4749;51.398;5.466;2022-12-07T16:03:27;4.10;;;1.77;;
9420;SDS011;4749;51.398;5.466;2022-12-07T16:05:54;3.83;;;1.87;;
9420;SDS011;4749;51.398;5.466;2022-12-07T16:08:21;3.87;;;2.00;;
9420;SDS011;4749;51.398;5.466;2022-12-07T16:10:48;3.87;;;1.80;;
9420;SDS011;4749;51.398;5.466;2022-12-07T16:13:15;4.33;;;1.70;;
9420;SDS011;4749;51.398;5.466;2022-12-07T16:15:45;4.17;;;2.10;;
9420;SDS011;4749;51.398;5.466;2022-12-07T16:18:12;3.17;;;1.80;;
9420;SDS011;4749;51.398;5.466;2022-12-07T16:20:39;4.30;;;2.07;;
9420;SDS011;4749;51.398;5.466;2022-12-07T16:23:06;3.47;;;2.00;;
9420;SDS011;4749;51.398;5.466;2022-12-07T16:25:34;5.57;;;2.23;;
9420;SDS011;4749;51.398;5.466;2022-12-07T16:28:02;7.40;;;1.93;;
9420;SDS011;4749;51.398;5.466;2022-12-07T16:30:29;4.10;;;2.03;;
9420;SDS011;4749;51.398;5.466;2022-12-07T16:32:56;6.57;;;2.43;;
9420;SDS011;4749;51.398;5.466;2022-12-07T16:35:28;4.97;;;1.90;;
9420;SDS011;4749;51.398;5.466;2022-12-07T16:37:55;4.73;;;1.80;;
9420;SDS011;4749;51.398;5.466;2022-12-07T16:40:22;5.70;;;2.03;;
9420;SDS011;4749;51.398;5.466;2022-12-07T16:42:50;5.27;;;2.20;;
9420;SDS011;4749;51.398;5.466;2022-12-07T16:45:18;6.30;;;2.10;;
9420;SDS011;4749;51.398;5.466;2022-12-07T16:47:46;3.03;;;1.90;;
9420;SDS011;4749;51.398;5.466;2022-12-07T16:50:14;5.83;;;2.00;;
9420;SDS011;4749;51.398;5.466;2022-12-07T16:52:41;4.97;;;2.00;;
9420;SDS011;4749;51.398;5.466;2022-12-07T16:55:08;7.80;;;1.90;;
9420;SDS011;4749;51.398;5.466;2022-12-07T16:57:35;11.47;;;3.17;;
9420;SDS011;4749;51.398;5.466;2022-12-07T17:00:05;9.47;;;2.43;;
9420;SDS011;4749;51.398;5.466;2022-12-07T17:02:33;7.50;;;1.90;;
9420;SDS011;4749;51.398;5.466;2022-12-07T17:05:00;5.70;;;2.30;;
9420;SDS011;4749;51.398;5.466;2022-12-07T17:07:28;6.17;;;2.60;;
9420;SDS011;4749;51.398;5.466;2022-12-07T17:09:56;4.37;;;2.00;;
9420;SDS011;4749;51.398;5.466;2022-12-07T17:12:24;4.40;;;1.83;;
9420;SDS011;4749;51.398;5.466;2022-12-07T17:14:52;5.33;;;1.90;;
9420;SDS011;4749;51.398;5.466;2022-12-07T17:17:38;4.43;;;2.00;;
9420;SDS011;4749;51.398;5.466;2022-12-07T17:20:06;6.00;;;2.23;;
9420;SDS011;4749;51.398;5.466;2022-12-07T17:22:34;4.17;;;1.53;;
9420;SDS011;4749;51.398;5.466;2022-12-07T17:25:01;6.03;;;1.73;;
9420;SDS011;4749;51.398;5.466;2022-12-07T17:27:30;3.47;;;1.87;;
9420;SDS011;4749;51.398;5.466;2022-12-07T17:29:59;4.93;;;1.70;;
9420;SDS011;4749;51.398;5.466;2022-12-07T17:32:27;4.90;;;1.63;;
9420;SDS011;4749;51.398;5.466;2022-12-07T17:34:54;2.40;;;1.80;;
9420;SDS011;4749;51.398;5.466;2022-12-07T17:37:21;3.40;;;1.80;;
9420;SDS011;4749;51.398;5.466;2022-12-07T17:39:49;6.47;;;2.03;;
9420;SDS011;4749;51.398;5.466;2022-12-07T17:42:16;3.83;;;2.10;;
9420;SDS011;4749;51.398;5.466;2022-12-07T17:45:05;4.40;;;2.50;;
9420;SDS011;4749;51.398;5.466;2022-12-07T17:47:36;2.80;;;2.30;;
9420;SDS011;4749;51.398;5.466;2022-12-07T17:50:05;5.60;;;2.57;;
9420;SDS011;4749;51.398;5.466;2022-12-07T17:52:36;5.27;;;2.10;;
9420;SDS011;4749;51.398;5.466;2022-12-07T17:55:24;4.00;;;2.30;;
9420;SDS011;4749;51.398;5.466;2022-12-07T17:57:51;5.57;;;2.60;;
9420;SDS011;4749;51.398;5.466;2022-12-07T18:00:19;5.70;;;3.00;;
9420;SDS011;4749;51.398;5.466;2022-12-07T18:02:46;4.07;;;2.60;;
9420;SDS011;4749;51.398;5.466;2022-12-07T18:05:13;3.77;;;2.50;;
9420;SDS011;4749;51.398;5.466;2022-12-07T18:07:40;4.73;;;2.63;;
9420;SDS011;4749;51.398;5.466;2022-12-07T18:10:08;5.07;;;2.50;;
9420;SDS011;4749;51.398;5.466;2022-12-07T18:12:37;5.50;;;2.60;;